Etusivu
METAR-TAF:

METAR-TAF

Lentoasemat :

San Marcos Municipal Airport

San Marcos, Texas, Yhdysvallat

Leveyspiiri: 29-53-37N, Pituuspiiri: 097-51-53W, korkeus merenpinnasta: 182 m

Tämänhetkinen sää

Tämä raportti tehtiin 20 minuuttia sitten, kello 11.15 UTC
Tuuli 6 kn lännestä/luoteesta
Lämpötila 12°C
Kosteus 94%
Ilmanpaine 1019 hPa
Näkyvyys: 6.4 km
Hajanaisia pilviä 200 ft:n korkeudessa
utua

METAR: KHYI 061115Z AUTO 30006KT 4SM BR SCT002 12/11 A3008 RMK AO2 TSNO PNO $

Aika: 05:35 (11:35 UTC)


TAF: puuttuu

Säähavainnot ja -ennusteet yli 4000 lentoasemalta (METAR- ja TAF-raportit).

Käytössä olevat sääasemat on merkitty karttaan keltaisilla ja punaisilla pisteillä.

Aseta hiiri pisteen päälle nähdäksesi sääaseman nimen.

Klikkaa sitten nähdäksesi säähavainnot ja -ennusteet.

Kartan vaihtaminen: klikkaa mustalla rastilla varustettuja vihreitä pisteitä, niin voit zoomata sisään; viivalla varustettua vihreää pistettä, niin voit zoomata ulos tai vihreitä nuolia, niin pääset viereisille kartoille.


METAR-TAF: